sensor_id;sensor_type;location;lat;lon;timestamp;temperature;humidity
17152;DHT22;8691;50.828;4.700;2023-09-07T00:00:25;17.70;99.90
17152;DHT22;8691;50.828;4.700;2023-09-07T00:02:53;17.70;99.90
17152;DHT22;8691;50.828;4.700;2023-09-07T00:05:20;17.70;99.90
17152;DHT22;8691;50.828;4.700;2023-09-07T00:07:47;17.70;99.90
17152;DHT22;8691;50.828;4.700;2023-09-07T00:10:14;17.70;99.90
17152;DHT22;8691;50.828;4.700;2023-09-07T00:12:41;17.60;99.90
17152;DHT22;8691;50.828;4.700;2023-09-07T00:15:08;17.60;99.90
17152;DHT22;8691;50.828;4.700;2023-09-07T00:17:35;17.60;99.90
17152;DHT22;8691;50.828;4.700;2023-09-07T00:20:03;17.60;99.90
17152;DHT22;8691;50.828;4.700;2023-09-07T00:22:36;17.60;99.90
17152;DHT22;8691;50.828;4.700;2023-09-07T00:25:03;17.60;99.90
17152;DHT22;8691;50.828;4.700;2023-09-07T00:27:30;17.60;99.90
17152;DHT22;8691;50.828;4.700;2023-09-07T00:29:58;17.50;99.90
17152;DHT22;8691;50.828;4.700;2023-09-07T00:32:24;17.50;99.90
17152;DHT22;8691;50.828;4.700;2023-09-07T00:34:51;17.50;99.90
17152;DHT22;8691;50.828;4.700;2023-09-07T00:37:18;17.40;99.90
17152;DHT22;8691;50.828;4.700;2023-09-07T00:39:45;17.40;99.90
17152;DHT22;8691;50.828;4.700;2023-09-07T00:42:12;17.30;99.90
17152;DHT22;8691;50.828;4.700;2023-09-07T00:44:39;17.30;99.90
17152;DHT22;8691;50.828;4.700;2023-09-07T00:47:06;17.20;99.90
17152;DHT22;8691;50.828;4.700;2023-09-07T00:49:33;17.20;99.90
17152;DHT22;8691;50.828;4.700;2023-09-07T00:52:00;17.10;99.90
17152;DHT22;8691;50.828;4.700;2023-09-07T00:54:26;17.10;99.90
17152;DHT22;8691;50.828;4.700;2023-09-07T00:56:54;17.10;99.90
17152;DHT22;8691;50.828;4.700;2023-09-07T00:59:20;17.10;99.90
17152;DHT22;8691;50.828;4.700;2023-09-07T01:01:47;17.00;99.90
17152;DHT22;8691;50.828;4.700;2023-09-07T01:04:13;17.00;99.90
17152;DHT22;8691;50.828;4.700;2023-09-07T01:06:43;17.00;99.90
17152;DHT22;8691;50.828;4.700;2023-09-07T01:09:19;16.90;99.90
17152;DHT22;8691;50.828;4.700;2023-09-07T01:11:42;16.90;99.90
17152;DHT22;8691;50.828;4.700;2023-09-07T01:14:09;16.90;99.90
17152;DHT22;8691;50.828;4.700;2023-09-07T01:16:36;16.80;99.90
17152;DHT22;8691;50.828;4.700;2023-09-07T01:19:03;16.80;99.90
17152;DHT22;8691;50.828;4.700;2023-09-07T01:21:38;16.80;99.90
17152;DHT22;8691;50.828;4.700;2023-09-07T01:24:08;16.80;99.90
17152;DHT22;8691;50.828;4.700;2023-09-07T01:26:35;16.80;99.90
17152;DHT22;8691;50.828;4.700;2023-09-07T01:29:02;16.80;99.90
17152;DHT22;8691;50.828;4.700;2023-09-07T01:31:29;16.80;99.90
17152;DHT22;8691;50.828;4.700;2023-09-07T01:33:56;16.70;99.90
17152;DHT22;8691;50.828;4.700;2023-09-07T01:36:24;16.70;99.90
17152;DHT22;8691;50.828;4.700;2023-09-07T01:38:52;16.70;99.90
17152;DHT22;8691;50.828;4.700;2023-09-07T01:41:19;16.70;99.90
17152;DHT22;8691;50.828;4.700;2023-09-07T01:43:46;16.70;99.90
17152;DHT22;8691;50.828;4.700;2023-09-07T01:46:13;16.60;99.90
17152;DHT22;8691;50.828;4.700;2023-09-07T01:48:40;16.60;99.90
17152;DHT22;8691;50.828;4.700;2023-09-07T01:51:07;16.60;99.90
17152;DHT22;8691;50.828;4.700;2023-09-07T01:53:35;16.50;99.90
17152;DHT22;8691;50.828;4.700;2023-09-07T01:56:02;16.50;99.90
17152;DHT22;8691;50.828;4.700;2023-09-07T01:58:29;16.50;99.90
17152;DHT22;8691;50.828;4.700;2023-09-07T02:00:59;16.50;99.90
17152;DHT22;8691;50.828;4.700;2023-09-07T02:03:26;16.40;99.90
17152;DHT22;8691;50.828;4.700;2023-09-07T02:05:53;16.40;99.90
17152;DHT22;8691;50.828;4.700;2023-09-07T02:08:20;16.40;99.90
17152;DHT22;8691;50.828;4.700;2023-09-07T02:10:46;16.40;99.90
17152;DHT22;8691;50.828;4.700;2023-09-07T02:13:13;16.30;99.90
17152;DHT22;8691;50.828;4.700;2023-09-07T02:15:40;16.30;99.90
17152;DHT22;8691;50.828;4.700;2023-09-07T02:18:07;16.20;99.90
17152;DHT22;8691;50.828;4.700;2023-09-07T02:20:34;16.20;99.90
17152;DHT22;8691;50.828;4.700;2023-09-07T02:23:01;16.20;99.90
17152;DHT22;8691;50.828;4.700;2023-09-07T02:25:28;16.20;99.90
17152;DHT22;8691;50.828;4.700;2023-09-07T02:27:54;16.20;99.90
17152;DHT22;8691;50.828;4.700;2023-09-07T02:30:22;16.10;99.90
17152;DHT22;8691;50.828;4.700;2023-09-07T02:32:49;16.10;99.90
17152;DHT22;8691;50.828;4.700;2023-09-07T02:35:16;16.10;99.90
17152;DHT22;8691;50.828;4.700;2023-09-07T02:37:43;16.10;99.90
17152;DHT22;8691;50.828;4.700;2023-09-07T02:40:10;16.00;99.90
17152;DHT22;8691;50.828;4.700;2023-09-07T02:42:36;16.00;99.90
17152;DHT22;8691;50.828;4.700;2023-09-07T02:45:04;16.00;99.90
17152;DHT22;8691;50.828;4.700;2023-09-07T02:47:31;16.00;99.90
17152;DHT22;8691;50.828;4.700;2023-09-07T02:49:59;16.00;99.90
17152;DHT22;8691;50.828;4.700;2023-09-07T02:52:27;16.00;99.90
17152;DHT22;8691;50.828;4.700;2023-09-07T02:54:54;16.00;99.90
17152;DHT22;8691;50.828;4.700;2023-09-07T02:57:21;15.90;99.90
17152;DHT22;8691;50.828;4.700;2023-09-07T02:59:48;15.90;99.90
17152;DHT22;8691;50.828;4.700;2023-09-07T03:02:14;15.90;99.90
17152;DHT22;8691;50.828;4.700;2023-09-07T03:04:41;15.90;99.90
17152;DHT22;8691;50.828;4.700;2023-09-07T03:07:09;15.70;99.90
17152;DHT22;8691;50.828;4.700;2023-09-07T03:09:36;15.70;99.90
17152;DHT22;8691;50.828;4.700;2023-09-07T03:12:02;15.70;99.90
17152;DHT22;8691;50.828;4.700;2023-09-07T03:14:29;15.70;99.90
17152;DHT22;8691;50.828;4.700;2023-09-07T03:16:56;15.60;99.90
17152;DHT22;8691;50.828;4.700;2023-09-07T03:19:23;15.60;99.90
17152;DHT22;8691;50.828;4.700;2023-09-07T03:21:50;15.50;99.90
17152;DHT22;8691;50.828;4.700;2023-09-07T03:24:17;15.50;99.90
17152;DHT22;8691;50.828;4.700;2023-09-07T03:26:44;15.50;99.90
17152;DHT22;8691;50.828;4.700;2023-09-07T03:29:11;15.50;99.90
17152;DHT22;8691;50.828;4.700;2023-09-07T03:31:38;15.50;99.90
17152;DHT22;8691;50.828;4.700;2023-09-07T03:34:05;15.50;99.90
17152;DHT22;8691;50.828;4.700;2023-09-07T03:36:32;15.50;99.90
17152;DHT22;8691;50.828;4.700;2023-09-07T03:38:59;15.50;99.90
17152;DHT22;8691;50.828;4.700;2023-09-07T03:41:26;15.50;99.90
17152;DHT22;8691;50.828;4.700;2023-09-07T03:43:53;15.50;99.90
17152;DHT22;8691;50.828;4.700;2023-09-07T03:46:20;15.40;99.90
17152;DHT22;8691;50.828;4.700;2023-09-07T03:48:47;15.40;99.90
17152;DHT22;8691;50.828;4.700;2023-09-07T03:51:14;15.40;99.90
17152;DHT22;8691;50.828;4.700;2023-09-07T03:53:41;15.30;99.90
17152;DHT22;8691;50.828;4.700;2023-09-07T03:56:08;15.10;99.90
17152;DHT22;8691;50.828;4.700;2023-09-07T03:58:34;15.10;99.90
17152;DHT22;8691;50.828;4.700;2023-09-07T04:01:01;15.10;99.90
17152;DHT22;8691;50.828;4.700;2023-09-07T04:03:28;15.10;99.90
17152;DHT22;8691;50.828;4.700;2023-09-07T04:05:55;15.10;99.90
17152;DHT22;8691;50.828;4.700;2023-09-07T04:08:21;15.10;99.90
17152;DHT22;8691;50.828;4.700;2023-09-07T04:10:48;15.10;99.90
17152;DHT22;8691;50.828;4.700;2023-09-07T04:13:15;15.10;99.90
17152;DHT22;8691;50.828;4.700;2023-09-07T04:15:45;15.10;99.90
17152;DHT22;8691;50.828;4.700;2023-09-07T04:18:13;15.00;99.90
17152;DHT22;8691;50.828;4.700;2023-09-07T04:20:39;15.10;99.90
17152;DHT22;8691;50.828;4.700;2023-09-07T04:23:06;15.00;99.90
17152;DHT22;8691;50.828;4.700;2023-09-07T04:25:33;15.00;99.90
17152;DHT22;8691;50.828;4.700;2023-09-07T04:28:01;15.00;99.90
17152;DHT22;8691;50.828;4.700;2023-09-07T04:30:27;15.00;99.90
17152;DHT22;8691;50.828;4.700;2023-09-07T04:32:54;15.00;99.90
17152;DHT22;8691;50.828;4.700;2023-09-07T04:35:26;15.00;99.90
17152;DHT22;8691;50.828;4.700;2023-09-07T04:37:48;15.00;99.90
17152;DHT22;8691;50.828;4.700;2023-09-07T04:40:14;15.00;99.90
17152;DHT22;8691;50.828;4.700;2023-09-07T04:42:41;14.90;99.90
17152;DHT22;8691;50.828;4.700;2023-09-07T04:45:08;14.90;99.90
17152;DHT22;8691;50.828;4.700;2023-09-07T04:47:35;14.90;99.90
17152;DHT22;8691;50.828;4.700;2023-09-07T04:50:02;14.90;99.90
17152;DHT22;8691;50.828;4.700;2023-09-07T04:52:29;14.90;99.90
17152;DHT22;8691;50.828;4.700;2023-09-07T04:54:56;14.90;99.90
17152;DHT22;8691;50.828;4.700;2023-09-07T04:57:23;14.90;99.90
17152;DHT22;8691;50.828;4.700;2023-09-07T04:59:49;14.90;99.90
17152;DHT22;8691;50.828;4.700;2023-09-07T05:02:16;14.90;99.90
17152;DHT22;8691;50.828;4.700;2023-09-07T05:04:43;14.80;99.90
17152;DHT22;8691;50.828;4.700;2023-09-07T05:07:10;14.90;99.90
17152;DHT22;8691;50.828;4.700;2023-09-07T05:09:37;14.90;99.90
17152;DHT22;8691;50.828;4.700;2023-09-07T05:12:03;14.90;99.90
17152;DHT22;8691;50.828;4.700;2023-09-07T05:14:30;14.90;99.90
17152;DHT22;8691;50.828;4.700;2023-09-07T05:16:57;14.90;99.90
17152;DHT22;8691;50.828;4.700;2023-09-07T05:19:24;15.00;99.90
17152;DHT22;8691;50.828;4.700;2023-09-07T05:21:51;15.00;99.90
17152;DHT22;8691;50.828;4.700;2023-09-07T05:24:18;15.00;99.90
17152;DHT22;8691;50.828;4.700;2023-09-07T05:26:44;15.10;99.90
17152;DHT22;8691;50.828;4.700;2023-09-07T05:29:11;15.10;99.90
17152;DHT22;8691;50.828;4.700;2023-09-07T05:31:38;15.10;99.90
17152;DHT22;8691;50.828;4.700;2023-09-07T05:34:05;15.20;99.90
17152;DHT22;8691;50.828;4.700;2023-09-07T05:36:32;15.20;99.90
17152;DHT22;8691;50.828;4.700;2023-09-07T05:38:59;15.30;99.90
17152;DHT22;8691;50.828;4.700;2023-09-07T05:41:26;15.30;99.90
17152;DHT22;8691;50.828;4.700;2023-09-07T05:43:53;15.40;99.90
17152;DHT22;8691;50.828;4.700;2023-09-07T05:46:20;15.40;99.90
17152;DHT22;8691;50.828;4.700;2023-09-07T05:48:47;15.60;99.90
17152;DHT22;8691;50.828;4.700;2023-09-07T05:51:14;16.40;99.90
17152;DHT22;8691;50.828;4.700;2023-09-07T05:53:41;17.30;99.90
17152;DHT22;8691;50.828;4.700;2023-09-07T05:56:08;18.30;99.90
17152;DHT22;8691;50.828;4.700;2023-09-07T05:58:35;19.00;99.90
17152;DHT22;8691;50.828;4.700;2023-09-07T06:01:02;19.70;99.90
17152;DHT22;8691;50.828;4.700;2023-09-07T06:03:29;20.20;99.90
17152;DHT22;8691;50.828;4.700;2023-09-07T06:05:56;21.60;99.90
17152;DHT22;8691;50.828;4.700;2023-09-07T06:08:23;21.50;99.90
17152;DHT22;8691;50.828;4.700;2023-09-07T06:10:50;22.70;99.90
17152;DHT22;8691;50.828;4.700;2023-09-07T06:13:17;23.70;99.90
17152;DHT22;8691;50.828;4.700;2023-09-07T06:15:43;24.60;99.90
17152;DHT22;8691;50.828;4.700;2023-09-07T06:18:10;25.30;99.90
17152;DHT22;8691;50.828;4.700;2023-09-07T06:20:37;25.70;99.90
17152;DHT22;8691;50.828;4.700;2023-09-07T06:23:04;25.80;99.90
17152;DHT22;8691;50.828;4.700;2023-09-07T06:25:31;26.10;99.90
17152;DHT22;8691;50.828;4.700;2023-09-07T06:27:58;26.30;99.90
17152;DHT22;8691;50.828;4.700;2023-09-07T06:30:25;26.80;99.90
17152;DHT22;8691;50.828;4.700;2023-09-07T06:32:52;27.30;99.40
17152;DHT22;8691;50.828;4.700;2023-09-07T06:35:20;27.80;98.70
17152;DHT22;8691;50.828;4.700;2023-09-07T06:37:47;27.70;98.60
17152;DHT22;8691;50.828;4.700;2023-09-07T06:40:14;28.50;97.60
17152;DHT22;8691;50.828;4.700;2023-09-07T06:42:40;29.20;96.60
17152;DHT22;8691;50.828;4.700;2023-09-07T06:45:08;29.50;96.00
17152;DHT22;8691;50.828;4.700;2023-09-07T06:47:35;29.50;95.90
17152;DHT22;8691;50.828;4.700;2023-09-07T06:50:02;29.90;95.40
17152;DHT22;8691;50.828;4.700;2023-09-07T06:52:28;30.10;94.70
17152;DHT22;8691;50.828;4.700;2023-09-07T06:54:55;30.60;93.70
17152;DHT22;8691;50.828;4.700;2023-09-07T06:57:22;31.30;92.30
17152;DHT22;8691;50.828;4.700;2023-09-07T06:59:50;32.00;90.90
17152;DHT22;8691;50.828;4.700;2023-09-07T07:02:18;32.10;90.40
17152;DHT22;8691;50.828;4.700;2023-09-07T07:04:44;32.10;90.40
17152;DHT22;8691;50.828;4.700;2023-09-07T07:07:12;32.10;89.30
17152;DHT22;8691;50.828;4.700;2023-09-07T07:09:39;32.50;87.30
17152;DHT22;8691;50.828;4.700;2023-09-07T07:12:06;32.50;87.30
17152;DHT22;8691;50.828;4.700;2023-09-07T07:14:33;33.10;84.90
17152;DHT22;8691;50.828;4.700;2023-09-07T07:17:00;33.10;84.20
17152;DHT22;8691;50.828;4.700;2023-09-07T07:19:27;33.00;82.40
17152;DHT22;8691;50.828;4.700;2023-09-07T07:21:54;32.80;83.50
17152;DHT22;8691;50.828;4.700;2023-09-07T07:24:21;33.00;83.20
17152;DHT22;8691;50.828;4.700;2023-09-07T07:26:48;33.30;82.10
17152;DHT22;8691;50.828;4.700;2023-09-07T07:29:15;34.30;78.40
17152;DHT22;8691;50.828;4.700;2023-09-07T07:31:42;34.70;78.00
17152;DHT22;8691;50.828;4.700;2023-09-07T07:34:10;34.90;75.80
17152;DHT22;8691;50.828;4.700;2023-09-07T07:36:37;34.90;75.70
17152;DHT22;8691;50.828;4.700;2023-09-07T07:39:04;35.00;75.80
17152;DHT22;8691;50.828;4.700;2023-09-07T07:41:31;34.90;74.90
17152;DHT22;8691;50.828;4.700;2023-09-07T07:43:57;35.00;73.30
17152;DHT22;8691;50.828;4.700;2023-09-07T07:46:25;35.00;73.30
17152;DHT22;8691;50.828;4.700;2023-09-07T07:48:52;35.00;72.90
17152;DHT22;8691;50.828;4.700;2023-09-07T07:51:19;35.00;72.80
17152;DHT22;8691;50.828;4.700;2023-09-07T07:53:46;35.00;71.90
17152;DHT22;8691;50.828;4.700;2023-09-07T07:56:16;35.30;71.40
17152;DHT22;8691;50.828;4.700;2023-09-07T07:58:43;35.00;71.50
17152;DHT22;8691;50.828;4.700;2023-09-07T08:01:16;35.30;71.40
17152;DHT22;8691;50.828;4.700;2023-09-07T08:03:39;35.40;69.70
17152;DHT22;8691;50.828;4.700;2023-09-07T08:06:06;35.40;68.40
17152;DHT22;8691;50.828;4.700;2023-09-07T08:08:33;35.10;69.70
17152;DHT22;8691;50.828;4.700;2023-09-07T08:11:00;34.80;69.60
17152;DHT22;8691;50.828;4.700;2023-09-07T08:13:27;34.50;72.00
17152;DHT22;8691;50.828;4.700;2023-09-07T08:15:54;34.60;72.00
17152;DHT22;8691;50.828;4.700;2023-09-07T08:18:21;35.20;69.00
17152;DHT22;8691;50.828;4.700;2023-09-07T08:20:48;34.80;69.90
17152;DHT22;8691;50.828;4.700;2023-09-07T08:23:15;34.80;70.30
17152;DHT22;8691;50.828;4.700;2023-09-07T08:25:42;34.80;70.70
17152;DHT22;8691;50.828;4.700;2023-09-07T08:28:10;35.20;69.80
17152;DHT22;8691;50.828;4.700;2023-09-07T08:30:36;35.80;68.00
17152;DHT22;8691;50.828;4.700;2023-09-07T08:33:04;36.40;66.70
17152;DHT22;8691;50.828;4.700;2023-09-07T08:35:31;36.00;65.50
17152;DHT22;8691;50.828;4.700;2023-09-07T08:37:57;35.80;65.60
17152;DHT22;8691;50.828;4.700;2023-09-07T08:40:25;36.20;66.10
17152;DHT22;8691;50.828;4.700;2023-09-07T08:42:51;36.10;65.30
17152;DHT22;8691;50.828;4.700;2023-09-07T08:45:20;36.30;65.30
17152;DHT22;8691;50.828;4.700;2023-09-07T08:47:46;36.10;65.60
17152;DHT22;8691;50.828;4.700;2023-09-07T08:50:13;36.10;65.60
17152;DHT22;8691;50.828;4.700;2023-09-07T08:52:40;35.80;63.70
17152;DHT22;8691;50.828;4.700;2023-09-07T08:55:07;35.50;65.20
17152;DHT22;8691;50.828;4.700;2023-09-07T08:57:34;35.80;64.40
17152;DHT22;8691;50.828;4.700;2023-09-07T09:00:01;35.70;64.50
17152;DHT22;8691;50.828;4.700;2023-09-07T09:02:28;35.70;64.40
17152;DHT22;8691;50.828;4.700;2023-09-07T09:04:55;35.50;64.20
17152;DHT22;8691;50.828;4.700;2023-09-07T09:07:22;35.30;64.20
17152;DHT22;8691;50.828;4.700;2023-09-07T09:09:49;35.80;63.20
17152;DHT22;8691;50.828;4.700;2023-09-07T09:12:16;36.00;62.40
17152;DHT22;8691;50.828;4.700;2023-09-07T09:14:43;35.80;62.50
17152;DHT22;8691;50.828;4.700;2023-09-07T09:17:13;35.80;62.80
17152;DHT22;8691;50.828;4.700;2023-09-07T09:19:40;35.60;63.40
17152;DHT22;8691;50.828;4.700;2023-09-07T09:22:07;35.80;63.70
17152;DHT22;8691;50.828;4.700;2023-09-07T09:24:34;36.10;61.70
17152;DHT22;8691;50.828;4.700;2023-09-07T09:27:01;36.00;61.60
17152;DHT22;8691;50.828;4.700;2023-09-07T09:29:28;36.00;61.90
17152;DHT22;8691;50.828;4.700;2023-09-07T09:31:56;36.30;61.60
17152;DHT22;8691;50.828;4.700;2023-09-07T09:34:23;36.10;62.00
17152;DHT22;8691;50.828;4.700;2023-09-07T09:36:50;36.10;61.40
17152;DHT22;8691;50.828;4.700;2023-09-07T09:39:23;36.10;62.40
17152;DHT22;8691;50.828;4.700;2023-09-07T09:41:51;36.30;61.20
17152;DHT22;8691;50.828;4.700;2023-09-07T09:44:17;35.80;60.90
17152;DHT22;8691;50.828;4.700;2023-09-07T09:46:44;35.90;62.50
17152;DHT22;8691;50.828;4.700;2023-09-07T09:49:12;35.80;61.90
17152;DHT22;8691;50.828;4.700;2023-09-07T09:51:39;35.70;61.80
17152;DHT22;8691;50.828;4.700;2023-09-07T09:54:06;35.70;61.80
17152;DHT22;8691;50.828;4.700;2023-09-07T09:56:33;35.80;61.00
17152;DHT22;8691;50.828;4.700;2023-09-07T09:59:00;35.80;62.10
17152;DHT22;8691;50.828;4.700;2023-09-07T10:01:28;36.20;59.80
17152;DHT22;8691;50.828;4.700;2023-09-07T10:03:55;36.20;59.80
17152;DHT22;8691;50.828;4.700;2023-09-07T10:06:23;35.70;61.00
17152;DHT22;8691;50.828;4.700;2023-09-07T10:09:02;35.70;61.00
17152;DHT22;8691;50.828;4.700;2023-09-07T10:11:31;35.70;61.50
17152;DHT22;8691;50.828;4.700;2023-09-07T10:13:58;35.90;60.70
17152;DHT22;8691;50.828;4.700;2023-09-07T10:16:25;35.90;58.50
17152;DHT22;8691;50.828;4.700;2023-09-07T10:18:51;35.70;60.20
17152;DHT22;8691;50.828;4.700;2023-09-07T10:21:18;35.40;59.60
17152;DHT22;8691;50.828;4.700;2023-09-07T10:23:46;35.20;59.60
17152;DHT22;8691;50.828;4.700;2023-09-07T10:26:17;35.30;60.60
17152;DHT22;8691;50.828;4.700;2023-09-07T10:28:43;35.30;60.50
17152;DHT22;8691;50.828;4.700;2023-09-07T10:31:14;35.90;58.70
17152;DHT22;8691;50.828;4.700;2023-09-07T10:33:40;35.90;59.80
17152;DHT22;8691;50.828;4.700;2023-09-07T10:36:07;35.60;59.70
17152;DHT22;8691;50.828;4.700;2023-09-07T10:38:36;35.40;59.90
17152;DHT22;8691;50.828;4.700;2023-09-07T10:41:04;34.80;60.70
17152;DHT22;8691;50.828;4.700;2023-09-07T10:43:31;34.30;62.40
17152;DHT22;8691;50.828;4.700;2023-09-07T10:45:57;34.20;62.80
17152;DHT22;8691;50.828;4.700;2023-09-07T10:48:30;34.10;63.20
17152;DHT22;8691;50.828;4.700;2023-09-07T10:50:53;33.70;63.50
17152;DHT22;8691;50.828;4.700;2023-09-07T10:53:30;33.20;65.30
17152;DHT22;8691;50.828;4.700;2023-09-07T10:56:03;32.50;67.70
17152;DHT22;8691;50.828;4.700;2023-09-07T10:58:30;31.90;69.10
17152;DHT22;8691;50.828;4.700;2023-09-07T11:00:56;31.90;69.10
17152;DHT22;8691;50.828;4.700;2023-09-07T11:03:27;31.50;71.80
17152;DHT22;8691;50.828;4.700;2023-09-07T11:06:08;31.40;71.60
17152;DHT22;8691;50.828;4.700;2023-09-07T11:08:33;31.40;71.60
17152;DHT22;8691;50.828;4.700;2023-09-07T11:11:01;31.20;71.80
17152;DHT22;8691;50.828;4.700;2023-09-07T11:13:28;31.00;72.40
17152;DHT22;8691;50.828;4.700;2023-09-07T11:15:55;30.90;72.90
17152;DHT22;8691;50.828;4.700;2023-09-07T11:18:21;30.80;74.50
17152;DHT22;8691;50.828;4.700;2023-09-07T11:20:48;30.90;75.20
17152;DHT22;8691;50.828;4.700;2023-09-07T11:23:19;30.70;76.20
17152;DHT22;8691;50.828;4.700;2023-09-07T11:25:48;30.70;75.50
17152;DHT22;8691;50.828;4.700;2023-09-07T11:28:12;30.80;75.70
17152;DHT22;8691;50.828;4.700;2023-09-07T11:30:49;30.90;75.50
17152;DHT22;8691;50.828;4.700;2023-09-07T11:33:15;30.90;75.00
17152;DHT22;8691;50.828;4.700;2023-09-07T11:35:42;30.90;76.30
17152;DHT22;8691;50.828;4.700;2023-09-07T11:38:12;30.80;75.70
17152;DHT22;8691;50.828;4.700;2023-09-07T11:40:36;30.70;75.60
17152;DHT22;8691;50.828;4.700;2023-09-07T11:43:02;30.70;76.80
17152;DHT22;8691;50.828;4.700;2023-09-07T11:45:29;30.80;77.60
17152;DHT22;8691;50.828;4.700;2023-09-07T11:47:56;30.70;76.70
17152;DHT22;8691;50.828;4.700;2023-09-07T11:50:23;30.60;76.80
17152;DHT22;8691;50.828;4.700;2023-09-07T11:52:51;30.60;78.70
17152;DHT22;8691;50.828;4.700;2023-09-07T11:55:18;30.70;77.80
17152;DHT22;8691;50.828;4.700;2023-09-07T11:57:46;30.60;78.80
17152;DHT22;8691;50.828;4.700;2023-09-07T12:00:13;30.60;78.00
17152;DHT22;8691;50.828;4.700;2023-09-07T12:02:40;30.60;77.60
17152;DHT22;8691;50.828;4.700;2023-09-07T12:05:07;30.70;78.60
17152;DHT22;8691;50.828;4.700;2023-09-07T12:07:38;30.60;77.40
17152;DHT22;8691;50.828;4.700;2023-09-07T12:10:04;30.50;78.90
17152;DHT22;8691;50.828;4.700;2023-09-07T12:12:31;30.50;78.70
17152;DHT22;8691;50.828;4.700;2023-09-07T12:14:58;30.60;78.40
17152;DHT22;8691;50.828;4.700;2023-09-07T12:17:25;30.50;78.80
17152;DHT22;8691;50.828;4.700;2023-09-07T12:19:52;30.50;78.70
17152;DHT22;8691;50.828;4.700;2023-09-07T12:22:18;30.60;77.90
17152;DHT22;8691;50.828;4.700;2023-09-07T12:24:45;30.70;79.40
17152;DHT22;8691;50.828;4.700;2023-09-07T12:27:12;30.80;77.70
17152;DHT22;8691;50.828;4.700;2023-09-07T12:29:39;30.70;78.10
17152;DHT22;8691;50.828;4.700;2023-09-07T12:32:06;30.70;78.40
17152;DHT22;8691;50.828;4.700;2023-09-07T12:34:33;30.70;78.00
17152;DHT22;8691;50.828;4.700;2023-09-07T12:37:01;30.70;78.60
17152;DHT22;8691;50.828;4.700;2023-09-07T12:39:27;30.70;78.60
17152;DHT22;8691;50.828;4.700;2023-09-07T12:41:54;30.70;78.20
17152;DHT22;8691;50.828;4.700;2023-09-07T12:44:22;30.80;82.30
17152;DHT22;8691;50.828;4.700;2023-09-07T12:46:49;30.80;81.50
17152;DHT22;8691;50.828;4.700;2023-09-07T12:49:15;30.80;83.60
17152;DHT22;8691;50.828;4.700;2023-09-07T12:51:42;30.80;82.60
17152;DHT22;8691;50.828;4.700;2023-09-07T12:54:09;30.80;82.00
17152;DHT22;8691;50.828;4.700;2023-09-07T12:56:36;30.80;81.90
17152;DHT22;8691;50.828;4.700;2023-09-07T12:59:03;30.90;81.80
17152;DHT22;8691;50.828;4.700;2023-09-07T13:01:30;30.40;81.10
17152;DHT22;8691;50.828;4.700;2023-09-07T13:03:57;30.40;80.90
17152;DHT22;8691;50.828;4.700;2023-09-07T13:06:24;30.50;82.10
17152;DHT22;8691;50.828;4.700;2023-09-07T13:08:51;30.50;82.40
17152;DHT22;8691;50.828;4.700;2023-09-07T13:11:18;30.50;80.40
17152;DHT22;8691;50.828;4.700;2023-09-07T13:13:45;30.60;80.50
17152;DHT22;8691;50.828;4.700;2023-09-07T13:16:12;30.50;80.60
17152;DHT22;8691;50.828;4.700;2023-09-07T13:18:39;30.60;82.70
17152;DHT22;8691;50.828;4.700;2023-09-07T13:21:07;30.70;83.20
17152;DHT22;8691;50.828;4.700;2023-09-07T13:23:34;30.70;83.20
17152;DHT22;8691;50.828;4.700;2023-09-07T13:26:01;30.90;83.10
17152;DHT22;8691;50.828;4.700;2023-09-07T13:28:28;30.90;82.40
17152;DHT22;8691;50.828;4.700;2023-09-07T13:30:55;30.80;84.00
17152;DHT22;8691;50.828;4.700;2023-09-07T13:33:22;30.80;83.80
17152;DHT22;8691;50.828;4.700;2023-09-07T13:35:49;30.80;84.00
17152;DHT22;8691;50.828;4.700;2023-09-07T13:38:15;30.80;84.50
17152;DHT22;8691;50.828;4.700;2023-09-07T13:40:42;30.70;83.80
17152;DHT22;8691;50.828;4.700;2023-09-07T13:43:09;30.80;85.30
17152;DHT22;8691;50.828;4.700;2023-09-07T13:45:37;30.90;85.10
17152;DHT22;8691;50.828;4.700;2023-09-07T13:48:04;30.80;85.40
17152;DHT22;8691;50.828;4.700;2023-09-07T13:50:31;30.90;83.80
17152;DHT22;8691;50.828;4.700;2023-09-07T13:52:58;30.80;84.20
17152;DHT22;8691;50.828;4.700;2023-09-07T13:55:26;30.50;85.70
17152;DHT22;8691;50.828;4.700;2023-09-07T13:57:53;30.50;85.70
17152;DHT22;8691;50.828;4.700;2023-09-07T14:00:20;30.50;85.90
17152;DHT22;8691;50.828;4.700;2023-09-07T14:02:47;30.50;87.90
17152;DHT22;8691;50.828;4.700;2023-09-07T14:05:14;30.70;86.80
17152;DHT22;8691;50.828;4.700;2023-09-07T14:07:41;30.50;87.20
17152;DHT22;8691;50.828;4.700;2023-09-07T14:10:08;30.50;87.00
17152;DHT22;8691;50.828;4.700;2023-09-07T14:12:35;30.60;87.80
17152;DHT22;8691;50.828;4.700;2023-09-07T14:15:02;30.70;87.60
17152;DHT22;8691;50.828;4.700;2023-09-07T14:17:29;30.60;88.50
17152;DHT22;8691;50.828;4.700;2023-09-07T14:19:56;30.60;88.60
17152;DHT22;8691;50.828;4.700;2023-09-07T14:22:23;30.50;88.80
17152;DHT22;8691;50.828;4.700;2023-09-07T14:24:50;30.70;87.90
17152;DHT22;8691;50.828;4.700;2023-09-07T14:27:17;30.50;88.50
17152;DHT22;8691;50.828;4.700;2023-09-07T14:29:44;30.40;87.90
17152;DHT22;8691;50.828;4.700;2023-09-07T14:32:11;30.40;88.60
17152;DHT22;8691;50.828;4.700;2023-09-07T14:34:38;30.50;88.60
17152;DHT22;8691;50.828;4.700;2023-09-07T14:37:05;30.50;90.00
17152;DHT22;8691;50.828;4.700;2023-09-07T14:39:32;30.70;90.30
17152;DHT22;8691;50.828;4.700;2023-09-07T14:41:59;30.70;89.30
17152;DHT22;8691;50.828;4.700;2023-09-07T14:44:25;30.60;89.80
17152;DHT22;8691;50.828;4.700;2023-09-07T14:46:52;30.60;90.30
17152;DHT22;8691;50.828;4.700;2023-09-07T14:49:19;30.50;90.20
17152;DHT22;8691;50.828;4.700;2023-09-07T14:51:46;30.40;90.50
17152;DHT22;8691;50.828;4.700;2023-09-07T14:54:13;30.40;90.50
17152;DHT22;8691;50.828;4.700;2023-09-07T14:56:41;30.40;90.90
17152;DHT22;8691;50.828;4.700;2023-09-07T14:59:08;30.40;90.90
17152;DHT22;8691;50.828;4.700;2023-09-07T15:01:35;30.40;91.00
17152;DHT22;8691;50.828;4.700;2023-09-07T15:04:02;30.50;90.70
17152;DHT22;8691;50.828;4.700;2023-09-07T15:06:29;30.50;91.40
17152;DHT22;8691;50.828;4.700;2023-09-07T15:08:56;30.60;91.70
17152;DHT22;8691;50.828;4.700;2023-09-07T15:11:23;30.60;90.50
17152;DHT22;8691;50.828;4.700;2023-09-07T15:13:50;30.60;90.40
17152;DHT22;8691;50.828;4.700;2023-09-07T15:16:16;30.70;90.20
17152;DHT22;8691;50.828;4.700;2023-09-07T15:18:43;30.50;90.70
17152;DHT22;8691;50.828;4.700;2023-09-07T15:21:10;30.40;90.90
17152;DHT22;8691;50.828;4.700;2023-09-07T15:23:38;30.60;90.70
17152;DHT22;8691;50.828;4.700;2023-09-07T15:26:05;30.50;91.00
17152;DHT22;8691;50.828;4.700;2023-09-07T15:28:32;30.50;91.00
17152;DHT22;8691;50.828;4.700;2023-09-07T15:30:59;30.50;90.90
17152;DHT22;8691;50.828;4.700;2023-09-07T15:33:26;30.50;91.00
17152;DHT22;8691;50.828;4.700;2023-09-07T15:35:53;30.50;91.80
17152;DHT22;8691;50.828;4.700;2023-09-07T15:38:20;30.40;91.80
17152;DHT22;8691;50.828;4.700;2023-09-07T15:40:47;30.40;91.70
17152;DHT22;8691;50.828;4.700;2023-09-07T15:43:14;30.40;91.80